sensor_id;sensor_type;location;lat;lon;timestamp;P1;durP1;ratioP1;P2;durP2;ratioP2
5147;SDS011;2592;48.140;7.614;2022-10-23T00:00:28;9.17;;;3.40;;
5147;SDS011;2592;48.140;7.614;2022-10-23T00:02:54;14.80;;;3.80;;
5147;SDS011;2592;48.140;7.614;2022-10-23T00:05:21;8.20;;;3.07;;
5147;SDS011;2592;48.140;7.614;2022-10-23T00:07:50;5.20;;;3.40;;
5147;SDS011;2592;48.140;7.614;2022-10-23T00:10:16;5.40;;;3.43;;
5147;SDS011;2592;48.140;7.614;2022-10-23T00:12:43;9.87;;;3.10;;
5147;SDS011;2592;48.140;7.614;2022-10-23T00:15:10;6.77;;;3.37;;
5147;SDS011;2592;48.140;7.614;2022-10-23T00:17:36;9.10;;;3.30;;
5147;SDS011;2592;48.140;7.614;2022-10-23T00:20:03;7.00;;;3.63;;
5147;SDS011;2592;48.140;7.614;2022-10-23T00:22:30;4.30;;;2.63;;
5147;SDS011;2592;48.140;7.614;2022-10-23T00:24:57;5.00;;;3.10;;
5147;SDS011;2592;48.140;7.614;2022-10-23T00:27:24;6.10;;;3.00;;
5147;SDS011;2592;48.140;7.614;2022-10-23T00:29:50;6.67;;;2.97;;
5147;SDS011;2592;48.140;7.614;2022-10-23T00:32:17;5.63;;;3.00;;
5147;SDS011;2592;48.140;7.614;2022-10-23T00:34:43;5.13;;;3.53;;
5147;SDS011;2592;48.140;7.614;2022-10-23T00:37:10;8.40;;;3.80;;
5147;SDS011;2592;48.140;7.614;2022-10-23T00:39:36;5.67;;;3.67;;
5147;SDS011;2592;48.140;7.614;2022-10-23T00:42:04;8.30;;;3.53;;
5147;SDS011;2592;48.140;7.614;2022-10-23T00:47:15;5.73;;;2.90;;
5147;SDS011;2592;48.140;7.614;2022-10-23T00:49:42;8.23;;;2.83;;
5147;SDS011;2592;48.140;7.614;2022-10-23T00:52:09;6.20;;;4.03;;
5147;SDS011;2592;48.140;7.614;2022-10-23T00:54:37;6.77;;;3.63;;
5147;SDS011;2592;48.140;7.614;2022-10-23T00:57:06;4.23;;;3.10;;
5147;SDS011;2592;48.140;7.614;2022-10-23T00:59:34;5.60;;;3.40;;
5147;SDS011;2592;48.140;7.614;2022-10-23T01:02:00;5.57;;;3.10;;
5147;SDS011;2592;48.140;7.614;2022-10-23T01:04:27;5.27;;;3.40;;
5147;SDS011;2592;48.140;7.614;2022-10-23T01:06:55;12.30;;;3.17;;
5147;SDS011;2592;48.140;7.614;2022-10-23T01:09:25;15.30;;;3.40;;
5147;SDS011;2592;48.140;7.614;2022-10-23T01:11:54;9.53;;;3.80;;
5147;SDS011;2592;48.140;7.614;2022-10-23T01:14:26;10.07;;;3.23;;
5147;SDS011;2592;48.140;7.614;2022-10-23T01:16:55;4.87;;;2.90;;
5147;SDS011;2592;48.140;7.614;2022-10-23T01:19:28;12.80;;;4.10;;
5147;SDS011;2592;48.140;7.614;2022-10-23T01:21:59;8.10;;;3.60;;
5147;SDS011;2592;48.140;7.614;2022-10-23T01:24:30;7.27;;;3.60;;
5147;SDS011;2592;48.140;7.614;2022-10-23T01:27:16;8.00;;;3.10;;
5147;SDS011;2592;48.140;7.614;2022-10-23T01:29:43;7.43;;;3.20;;
5147;SDS011;2592;48.140;7.614;2022-10-23T01:32:11;6.37;;;2.87;;
5147;SDS011;2592;48.140;7.614;2022-10-23T01:34:40;8.37;;;3.43;;
5147;SDS011;2592;48.140;7.614;2022-10-23T01:37:10;7.37;;;3.20;;
5147;SDS011;2592;48.140;7.614;2022-10-23T01:39:39;9.30;;;2.67;;
5147;SDS011;2592;48.140;7.614;2022-10-23T01:42:07;6.83;;;3.13;;
5147;SDS011;2592;48.140;7.614;2022-10-23T01:44:37;7.13;;;2.63;;
5147;SDS011;2592;48.140;7.614;2022-10-23T01:47:04;5.80;;;2.53;;
5147;SDS011;2592;48.140;7.614;2022-10-23T01:49:32;3.80;;;2.10;;
5147;SDS011;2592;48.140;7.614;2022-10-23T01:52:00;6.63;;;2.90;;
5147;SDS011;2592;48.140;7.614;2022-10-23T01:54:28;4.90;;;2.03;;
5147;SDS011;2592;48.140;7.614;2022-10-23T01:56:56;4.87;;;2.80;;
5147;SDS011;2592;48.140;7.614;2022-10-23T01:59:24;10.83;;;2.73;;
5147;SDS011;2592;48.140;7.614;2022-10-23T02:01:53;5.17;;;2.43;;
5147;SDS011;2592;48.140;7.614;2022-10-23T02:04:23;6.10;;;2.37;;
5147;SDS011;2592;48.140;7.614;2022-10-23T02:06:50;6.17;;;2.80;;
5147;SDS011;2592;48.140;7.614;2022-10-23T02:09:17;4.90;;;2.30;;
5147;SDS011;2592;48.140;7.614;2022-10-23T02:11:44;4.73;;;1.87;;
5147;SDS011;2592;48.140;7.614;2022-10-23T02:14:15;3.57;;;2.03;;
5147;SDS011;2592;48.140;7.614;2022-10-23T02:16:45;7.60;;;2.10;;
5147;SDS011;2592;48.140;7.614;2022-10-23T02:19:16;9.17;;;1.93;;
5147;SDS011;2592;48.140;7.614;2022-10-23T02:21:47;4.30;;;2.40;;
5147;SDS011;2592;48.140;7.614;2022-10-23T02:24:15;6.53;;;2.00;;
5147;SDS011;2592;48.140;7.614;2022-10-23T02:26:45;3.47;;;2.03;;
5147;SDS011;2592;48.140;7.614;2022-10-23T02:29:14;11.63;;;2.90;;
5147;SDS011;2592;48.140;7.614;2022-10-23T02:31:43;3.30;;;2.23;;
5147;SDS011;2592;48.140;7.614;2022-10-23T02:34:10;2.53;;;2.20;;
5147;SDS011;2592;48.140;7.614;2022-10-23T02:36:37;8.07;;;2.83;;
5147;SDS011;2592;48.140;7.614;2022-10-23T02:39:04;8.53;;;2.73;;
5147;SDS011;2592;48.140;7.614;2022-10-23T02:41:33;8.73;;;3.10;;
5147;SDS011;2592;48.140;7.614;2022-10-23T02:44:03;17.20;;;2.90;;
5147;SDS011;2592;48.140;7.614;2022-10-23T02:46:35;2.73;;;2.03;;
5147;SDS011;2592;48.140;7.614;2022-10-23T02:49:06;3.83;;;2.13;;
5147;SDS011;2592;48.140;7.614;2022-10-23T02:51:35;5.53;;;1.93;;
5147;SDS011;2592;48.140;7.614;2022-10-23T02:54:07;9.03;;;2.33;;
5147;SDS011;2592;48.140;7.614;2022-10-23T02:56:38;3.93;;;2.10;;
5147;SDS011;2592;48.140;7.614;2022-10-23T02:59:06;3.90;;;2.43;;
5147;SDS011;2592;48.140;7.614;2022-10-23T03:01:37;4.47;;;2.33;;
5147;SDS011;2592;48.140;7.614;2022-10-23T03:04:04;3.30;;;2.00;;
5147;SDS011;2592;48.140;7.614;2022-10-23T03:06:31;7.03;;;2.13;;
5147;SDS011;2592;48.140;7.614;2022-10-23T03:08:59;2.47;;;1.90;;
5147;SDS011;2592;48.140;7.614;2022-10-23T03:11:28;6.63;;;1.83;;
5147;SDS011;2592;48.140;7.614;2022-10-23T03:13:54;2.80;;;1.80;;
5147;SDS011;2592;48.140;7.614;2022-10-23T03:16:21;4.40;;;2.43;;
5147;SDS011;2592;48.140;7.614;2022-10-23T03:18:47;2.50;;;2.07;;
5147;SDS011;2592;48.140;7.614;2022-10-23T03:21:14;4.00;;;2.20;;
5147;SDS011;2592;48.140;7.614;2022-10-23T03:23:40;8.93;;;2.10;;
5147;SDS011;2592;48.140;7.614;2022-10-23T03:26:06;3.60;;;2.37;;
5147;SDS011;2592;48.140;7.614;2022-10-23T03:28:34;3.53;;;2.20;;
5147;SDS011;2592;48.140;7.614;2022-10-23T03:31:01;3.00;;;1.90;;
5147;SDS011;2592;48.140;7.614;2022-10-23T03:33:27;5.83;;;2.40;;
5147;SDS011;2592;48.140;7.614;2022-10-23T03:35:54;3.77;;;2.20;;
5147;SDS011;2592;48.140;7.614;2022-10-23T03:38:20;5.93;;;2.57;;
5147;SDS011;2592;48.140;7.614;2022-10-23T03:40:47;6.07;;;2.20;;
5147;SDS011;2592;48.140;7.614;2022-10-23T03:43:13;4.03;;;2.23;;
5147;SDS011;2592;48.140;7.614;2022-10-23T03:45:41;11.70;;;2.93;;
5147;SDS011;2592;48.140;7.614;2022-10-23T03:48:07;6.53;;;2.50;;
5147;SDS011;2592;48.140;7.614;2022-10-23T03:50:34;8.13;;;2.43;;
5147;SDS011;2592;48.140;7.614;2022-10-23T03:53:01;4.10;;;2.90;;
5147;SDS011;2592;48.140;7.614;2022-10-23T03:55:27;4.33;;;2.40;;
5147;SDS011;2592;48.140;7.614;2022-10-23T03:57:54;5.03;;;2.57;;
5147;SDS011;2592;48.140;7.614;2022-10-23T04:00:20;4.40;;;2.90;;
5147;SDS011;2592;48.140;7.614;2022-10-23T04:02:48;4.10;;;3.10;;
5147;SDS011;2592;48.140;7.614;2022-10-23T04:05:15;4.80;;;2.73;;
5147;SDS011;2592;48.140;7.614;2022-10-23T04:07:41;9.00;;;2.33;;
5147;SDS011;2592;48.140;7.614;2022-10-23T04:10:08;18.00;;;2.90;;
5147;SDS011;2592;48.140;7.614;2022-10-23T04:12:35;14.13;;;3.00;;
5147;SDS011;2592;48.140;7.614;2022-10-23T04:15:01;5.17;;;3.30;;
5147;SDS011;2592;48.140;7.614;2022-10-23T04:17:27;3.30;;;2.50;;
5147;SDS011;2592;48.140;7.614;2022-10-23T04:19:55;7.87;;;2.57;;
5147;SDS011;2592;48.140;7.614;2022-10-23T04:22:22;5.00;;;2.40;;
5147;SDS011;2592;48.140;7.614;2022-10-23T04:24:48;6.80;;;2.60;;
5147;SDS011;2592;48.140;7.614;2022-10-23T04:27:14;5.23;;;2.73;;
5147;SDS011;2592;48.140;7.614;2022-10-23T04:29:41;4.77;;;2.40;;
5147;SDS011;2592;48.140;7.614;2022-10-23T04:32:07;11.90;;;3.67;;
5147;SDS011;2592;48.140;7.614;2022-10-23T04:34:34;4.20;;;2.77;;
5147;SDS011;2592;48.140;7.614;2022-10-23T04:37:01;7.67;;;3.33;;
5147;SDS011;2592;48.140;7.614;2022-10-23T04:39:28;18.17;;;3.13;;
5147;SDS011;2592;48.140;7.614;2022-10-23T04:41:54;10.47;;;2.57;;
5147;SDS011;2592;48.140;7.614;2022-10-23T04:44:21;10.30;;;4.00;;
5147;SDS011;2592;48.140;7.614;2022-10-23T04:46:47;5.40;;;3.70;;
5147;SDS011;2592;48.140;7.614;2022-10-23T04:49:13;12.10;;;4.00;;
5147;SDS011;2592;48.140;7.614;2022-10-23T04:51:40;9.50;;;5.60;;
5147;SDS011;2592;48.140;7.614;2022-10-23T04:54:08;11.40;;;6.37;;
5147;SDS011;2592;48.140;7.614;2022-10-23T04:56:34;9.87;;;4.50;;
5147;SDS011;2592;48.140;7.614;2022-10-23T04:59:01;5.57;;;4.07;;
5147;SDS011;2592;48.140;7.614;2022-10-23T05:01:27;4.93;;;3.17;;
5147;SDS011;2592;48.140;7.614;2022-10-23T05:03:53;6.50;;;3.03;;
5147;SDS011;2592;48.140;7.614;2022-10-23T05:06:20;6.57;;;3.00;;
5147;SDS011;2592;48.140;7.614;2022-10-23T05:08:47;8.80;;;2.47;;
5147;SDS011;2592;48.140;7.614;2022-10-23T05:11:15;3.13;;;2.40;;
5147;SDS011;2592;48.140;7.614;2022-10-23T05:13:41;3.87;;;2.50;;
5147;SDS011;2592;48.140;7.614;2022-10-23T05:16:07;6.33;;;2.00;;
5147;SDS011;2592;48.140;7.614;2022-10-23T05:18:34;8.43;;;2.33;;
5147;SDS011;2592;48.140;7.614;2022-10-23T05:21:04;3.80;;;2.00;;
5147;SDS011;2592;48.140;7.614;2022-10-23T05:23:31;8.10;;;2.53;;
5147;SDS011;2592;48.140;7.614;2022-10-23T05:25:59;10.40;;;2.30;;
5147;SDS011;2592;48.140;7.614;2022-10-23T05:28:28;5.00;;;2.20;;
5147;SDS011;2592;48.140;7.614;2022-10-23T05:30:55;3.30;;;1.97;;
5147;SDS011;2592;48.140;7.614;2022-10-23T05:33:22;3.63;;;1.97;;
5147;SDS011;2592;48.140;7.614;2022-10-23T05:35:49;3.33;;;2.33;;
5147;SDS011;2592;48.140;7.614;2022-10-23T05:38:15;2.80;;;2.13;;
5147;SDS011;2592;48.140;7.614;2022-10-23T05:40:42;3.43;;;2.40;;
5147;SDS011;2592;48.140;7.614;2022-10-23T05:43:08;5.50;;;2.43;;
5147;SDS011;2592;48.140;7.614;2022-10-23T05:45:36;6.50;;;2.07;;
5147;SDS011;2592;48.140;7.614;2022-10-23T05:48:03;6.37;;;2.37;;
5147;SDS011;2592;48.140;7.614;2022-10-23T05:50:29;15.27;;;3.10;;
5147;SDS011;2592;48.140;7.614;2022-10-23T05:52:55;3.47;;;2.20;;
5147;SDS011;2592;48.140;7.614;2022-10-23T05:55:22;4.97;;;2.60;;
5147;SDS011;2592;48.140;7.614;2022-10-23T05:57:50;6.87;;;3.27;;
5147;SDS011;2592;48.140;7.614;2022-10-23T06:00:17;5.87;;;3.50;;
5147;SDS011;2592;48.140;7.614;2022-10-23T06:02:45;15.90;;;3.07;;
5147;SDS011;2592;48.140;7.614;2022-10-23T06:05:11;9.13;;;2.27;;
5147;SDS011;2592;48.140;7.614;2022-10-23T06:07:37;4.27;;;1.90;;
5147;SDS011;2592;48.140;7.614;2022-10-23T06:10:04;4.37;;;2.30;;
5147;SDS011;2592;48.140;7.614;2022-10-23T06:12:31;5.37;;;2.53;;
5147;SDS011;2592;48.140;7.614;2022-10-23T06:14:57;9.10;;;2.83;;
5147;SDS011;2592;48.140;7.614;2022-10-23T06:17:24;5.67;;;2.27;;
5147;SDS011;2592;48.140;7.614;2022-10-23T06:19:52;5.63;;;2.80;;
5147;SDS011;2592;48.140;7.614;2022-10-23T06:22:24;4.00;;;2.40;;
5147;SDS011;2592;48.140;7.614;2022-10-23T06:24:51;3.43;;;2.47;;
5147;SDS011;2592;48.140;7.614;2022-10-23T06:27:17;8.13;;;2.20;;
5147;SDS011;2592;48.140;7.614;2022-10-23T06:29:43;5.73;;;2.20;;
5147;SDS011;2592;48.140;7.614;2022-10-23T06:32:10;10.70;;;2.40;;
5147;SDS011;2592;48.140;7.614;2022-10-23T06:34:37;7.20;;;2.23;;
5147;SDS011;2592;48.140;7.614;2022-10-23T06:37:05;2.20;;;2.00;;
5147;SDS011;2592;48.140;7.614;2022-10-23T06:39:31;2.60;;;2.13;;
5147;SDS011;2592;48.140;7.614;2022-10-23T06:41:57;3.60;;;2.47;;
5147;SDS011;2592;48.140;7.614;2022-10-23T06:44:24;7.43;;;2.50;;
5147;SDS011;2592;48.140;7.614;2022-10-23T06:46:50;3.40;;;2.77;;
5147;SDS011;2592;48.140;7.614;2022-10-23T06:49:16;4.77;;;2.67;;
5147;SDS011;2592;48.140;7.614;2022-10-23T06:51:43;5.63;;;2.90;;
5147;SDS011;2592;48.140;7.614;2022-10-23T06:54:11;4.80;;;2.07;;
5147;SDS011;2592;48.140;7.614;2022-10-23T06:56:37;3.53;;;1.87;;
5147;SDS011;2592;48.140;7.614;2022-10-23T06:59:03;4.47;;;2.40;;
5147;SDS011;2592;48.140;7.614;2022-10-23T07:01:31;7.60;;;2.40;;
5147;SDS011;2592;48.140;7.614;2022-10-23T07:03:58;3.23;;;2.70;;
5147;SDS011;2592;48.140;7.614;2022-10-23T07:06:24;12.93;;;2.47;;
5147;SDS011;2592;48.140;7.614;2022-10-23T07:08:51;5.13;;;2.10;;
5147;SDS011;2592;48.140;7.614;2022-10-23T07:11:18;4.70;;;2.43;;
5147;SDS011;2592;48.140;7.614;2022-10-23T07:13:45;4.10;;;2.70;;
5147;SDS011;2592;48.140;7.614;2022-10-23T07:16:12;4.20;;;2.70;;
5147;SDS011;2592;48.140;7.614;2022-10-23T07:18:39;5.80;;;2.70;;
5147;SDS011;2592;48.140;7.614;2022-10-23T07:21:05;10.40;;;2.33;;
5147;SDS011;2592;48.140;7.614;2022-10-23T07:23:32;11.27;;;2.63;;
5147;SDS011;2592;48.140;7.614;2022-10-23T07:26:01;6.10;;;2.50;;
5147;SDS011;2592;48.140;7.614;2022-10-23T07:28:29;15.50;;;3.47;;
5147;SDS011;2592;48.140;7.614;2022-10-23T07:30:56;13.63;;;3.50;;
5147;SDS011;2592;48.140;7.614;2022-10-23T07:33:23;5.27;;;3.33;;
5147;SDS011;2592;48.140;7.614;2022-10-23T07:35:49;6.83;;;3.33;;
5147;SDS011;2592;48.140;7.614;2022-10-23T07:38:15;12.63;;;3.60;;
5147;SDS011;2592;48.140;7.614;2022-10-23T07:40:42;14.97;;;5.60;;
5147;SDS011;2592;48.140;7.614;2022-10-23T07:43:09;7.03;;;4.47;;
5147;SDS011;2592;48.140;7.614;2022-10-23T07:45:36;8.87;;;3.60;;
5147;SDS011;2592;48.140;7.614;2022-10-23T07:48:03;6.87;;;4.53;;
5147;SDS011;2592;48.140;7.614;2022-10-23T07:50:29;7.33;;;4.03;;
5147;SDS011;2592;48.140;7.614;2022-10-23T07:52:56;11.43;;;6.60;;
5147;SDS011;2592;48.140;7.614;2022-10-23T07:55:23;8.90;;;5.63;;
5147;SDS011;2592;48.140;7.614;2022-10-23T07:57:49;7.53;;;5.17;;
5147;SDS011;2592;48.140;7.614;2022-10-23T08:00:16;7.40;;;4.30;;
5147;SDS011;2592;48.140;7.614;2022-10-23T08:02:43;7.77;;;5.13;;
5147;SDS011;2592;48.140;7.614;2022-10-23T08:05:10;10.13;;;5.47;;
5147;SDS011;2592;48.140;7.614;2022-10-23T08:07:36;12.97;;;6.43;;
5147;SDS011;2592;48.140;7.614;2022-10-23T08:10:03;14.60;;;6.23;;
5147;SDS011;2592;48.140;7.614;2022-10-23T08:12:29;8.50;;;5.20;;
5147;SDS011;2592;48.140;7.614;2022-10-23T08:14:56;13.23;;;6.00;;
5147;SDS011;2592;48.140;7.614;2022-10-23T08:17:22;10.13;;;4.90;;
5147;SDS011;2592;48.140;7.614;2022-10-23T08:19:50;8.47;;;4.10;;
5147;SDS011;2592;48.140;7.614;2022-10-23T08:22:16;8.07;;;4.33;;
5147;SDS011;2592;48.140;7.614;2022-10-23T08:24:43;8.00;;;5.30;;
5147;SDS011;2592;48.140;7.614;2022-10-23T08:27:09;7.23;;;4.07;;
5147;SDS011;2592;48.140;7.614;2022-10-23T08:29:36;13.67;;;4.40;;
5147;SDS011;2592;48.140;7.614;2022-10-23T08:32:02;8.00;;;3.40;;
5147;SDS011;2592;48.140;7.614;2022-10-23T08:34:29;14.40;;;3.30;;
5147;SDS011;2592;48.140;7.614;2022-10-23T08:36:57;3.50;;;1.53;;
5147;SDS011;2592;48.140;7.614;2022-10-23T08:39:23;6.27;;;2.53;;
5147;SDS011;2592;48.140;7.614;2022-10-23T08:41:50;3.67;;;2.17;;
5147;SDS011;2592;48.140;7.614;2022-10-23T08:44:18;4.80;;;2.27;;
5147;SDS011;2592;48.140;7.614;2022-10-23T08:46:47;5.33;;;2.10;;
5147;SDS011;2592;48.140;7.614;2022-10-23T08:49:16;6.97;;;2.70;;
5147;SDS011;2592;48.140;7.614;2022-10-23T08:51:45;5.77;;;2.10;;
5147;SDS011;2592;48.140;7.614;2022-10-23T08:54:14;4.67;;;2.40;;
5147;SDS011;2592;48.140;7.614;2022-10-23T08:56:42;3.47;;;2.67;;
5147;SDS011;2592;48.140;7.614;2022-10-23T08:59:11;3.30;;;1.87;;
5147;SDS011;2592;48.140;7.614;2022-10-23T09:01:39;4.17;;;1.50;;
5147;SDS011;2592;48.140;7.614;2022-10-23T09:04:08;5.20;;;2.80;;
5147;SDS011;2592;48.140;7.614;2022-10-23T09:06:35;2.93;;;2.20;;
5147;SDS011;2592;48.140;7.614;2022-10-23T09:09:08;3.83;;;2.47;;
5147;SDS011;2592;48.140;7.614;2022-10-23T09:11:37;10.77;;;2.27;;
5147;SDS011;2592;48.140;7.614;2022-10-23T09:14:17;21.40;;;3.40;;
5147;SDS011;2592;48.140;7.614;2022-10-23T09:16:54;6.10;;;3.20;;
5147;SDS011;2592;48.140;7.614;2022-10-23T09:19:23;6.57;;;2.83;;
5147;SDS011;2592;48.140;7.614;2022-10-23T09:21:52;11.50;;;3.60;;
5147;SDS011;2592;48.140;7.614;2022-10-23T09:24:20;5.57;;;2.77;;
5147;SDS011;2592;48.140;7.614;2022-10-23T09:26:49;12.53;;;3.37;;
5147;SDS011;2592;48.140;7.614;2022-10-23T09:29:17;4.03;;;3.50;;
5147;SDS011;2592;48.140;7.614;2022-10-23T09:31:50;9.17;;;3.60;;
5147;SDS011;2592;48.140;7.614;2022-10-23T09:34:17;6.03;;;4.03;;
5147;SDS011;2592;48.140;7.614;2022-10-23T09:36:48;7.03;;;2.80;;
5147;SDS011;2592;48.140;7.614;2022-10-23T09:39:20;11.23;;;3.03;;
5147;SDS011;2592;48.140;7.614;2022-10-23T09:41:46;7.40;;;3.70;;
5147;SDS011;2592;48.140;7.614;2022-10-23T09:44:16;14.20;;;3.60;;
5147;SDS011;2592;48.140;7.614;2022-10-23T09:46:44;11.20;;;3.40;;
5147;SDS011;2592;48.140;7.614;2022-10-23T09:49:15;6.63;;;3.43;;
5147;SDS011;2592;48.140;7.614;2022-10-23T09:51:47;5.40;;;3.23;;
5147;SDS011;2592;48.140;7.614;2022-10-23T09:54:15;6.57;;;3.33;;
5147;SDS011;2592;48.140;7.614;2022-10-23T09:56:45;13.13;;;5.00;;
5147;SDS011;2592;48.140;7.614;2022-10-23T09:59:18;10.83;;;4.50;;
5147;SDS011;2592;48.140;7.614;2022-10-23T10:01:47;7.97;;;3.80;;
5147;SDS011;2592;48.140;7.614;2022-10-23T10:04:14;4.77;;;2.80;;
5147;SDS011;2592;48.140;7.614;2022-10-23T10:06:41;25.53;;;3.33;;
5147;SDS011;2592;48.140;7.614;2022-10-23T10:09:10;10.70;;;3.33;;
5147;SDS011;2592;48.140;7.614;2022-10-23T10:11:38;5.23;;;2.80;;
5147;SDS011;2592;48.140;7.614;2022-10-23T10:16:56;9.83;;;2.90;;
5147;SDS011;2592;48.140;7.614;2022-10-23T10:19:26;18.50;;;3.03;;
5147;SDS011;2592;48.140;7.614;2022-10-23T10:21:59;10.47;;;3.30;;
5147;SDS011;2592;48.140;7.614;2022-10-23T10:24:29;4.47;;;3.20;;
5147;SDS011;2592;48.140;7.614;2022-10-23T10:26:58;7.90;;;3.53;;
5147;SDS011;2592;48.140;7.614;2022-10-23T10:29:33;10.53;;;2.83;;
5147;SDS011;2592;48.140;7.614;2022-10-23T10:32:09;7.10;;;3.00;;
5147;SDS011;2592;48.140;7.614;2022-10-23T10:34:39;12.97;;;4.03;;
5147;SDS011;2592;48.140;7.614;2022-10-23T10:37:11;7.67;;;2.57;;
5147;SDS011;2592;48.140;7.614;2022-10-23T10:39:43;5.37;;;2.10;;
5147;SDS011;2592;48.140;7.614;2022-10-23T10:42:19;5.37;;;2.50;;
5147;SDS011;2592;48.140;7.614;2022-10-23T10:44:49;3.77;;;2.10;;
5147;SDS011;2592;48.140;7.614;2022-10-23T10:47:20;3.50;;;1.97;;
5147;SDS011;2592;48.140;7.614;2022-10-23T10:50:02;5.27;;;2.53;;
5147;SDS011;2592;48.140;7.614;2022-10-23T10:52:32;11.00;;;5.73;;
5147;SDS011;2592;48.140;7.614;2022-10-23T10:55:02;13.33;;;5.67;;
5147;SDS011;2592;48.140;7.614;2022-10-23T10:57:35;8.53;;;4.30;;
5147;SDS011;2592;48.140;7.614;2022-10-23T11:00:04;13.67;;;4.07;;
5147;SDS011;2592;48.140;7.614;2022-10-23T11:02:34;5.30;;;2.47;;
5147;SDS011;2592;48.140;7.614;2022-10-23T11:05:04;4.37;;;2.17;;
5147;SDS011;2592;48.140;7.614;2022-10-23T11:07:37;6.60;;;2.10;;
5147;SDS011;2592;48.140;7.614;2022-10-23T11:10:12;4.53;;;2.33;;
5147;SDS011;2592;48.140;7.614;2022-10-23T11:12:39;3.53;;;2.10;;
5147;SDS011;2592;48.140;7.614;2022-10-23T11:15:10;7.83;;;1.63;;
5147;SDS011;2592;48.140;7.614;2022-10-23T11:17:39;4.97;;;2.63;;
5147;SDS011;2592;48.140;7.614;2022-10-23T11:20:13;7.43;;;2.30;;
5147;SDS011;2592;48.140;7.614;2022-10-23T11:22:42;3.57;;;1.93;;
5147;SDS011;2592;48.140;7.614;2022-10-23T11:25:17;3.60;;;2.27;;
5147;SDS011;2592;48.140;7.614;2022-10-23T11:27:50;4.50;;;1.87;;
5147;SDS011;2592;48.140;7.614;2022-10-23T11:30:23;3.77;;;2.33;;
5147;SDS011;2592;48.140;7.614;2022-10-23T11:35:43;5.50;;;3.20;;
5147;SDS011;2592;48.140;7.614;2022-10-23T11:38:14;15.50;;;3.00;;
5147;SDS011;2592;48.140;7.614;2022-10-23T11:40:42;6.70;;;4.20;;
5147;SDS011;2592;48.140;7.614;2022-10-23T11:43:09;14.07;;;3.30;;
5147;SDS011;2592;48.140;7.614;2022-10-23T11:45:36;4.30;;;2.87;;
5147;SDS011;2592;48.140;7.614;2022-10-23T11:48:03;6.03;;;4.20;;
5147;SDS011;2592;48.140;7.614;2022-10-23T11:50:31;4.70;;;2.80;;
5147;SDS011;2592;48.140;7.614;2022-10-23T11:53:04;4.63;;;1.80;;
5147;SDS011;2592;48.140;7.614;2022-10-23T11:55:35;8.10;;;3.03;;
5147;SDS011;2592;48.140;7.614;2022-10-23T12:00:57;12.97;;;2.50;;
5147;SDS011;2592;48.140;7.614;2022-10-23T12:03:27;7.83;;;2.67;;
5147;SDS011;2592;48.140;7.614;2022-10-23T12:06:01;10.33;;;2.17;;
5147;SDS011;2592;48.140;7.614;2022-10-23T12:08:32;6.17;;;2.90;;
5147;SDS011;2592;48.140;7.614;2022-10-23T12:11:00;4.43;;;2.50;;
5147;SDS011;2592;48.140;7.614;2022-10-23T12:13:28;12.30;;;2.23;;
5147;SDS011;2592;48.140;7.614;2022-10-23T12:15:55;9.23;;;2.80;;
5147;SDS011;2592;48.140;7.614;2022-10-23T12:18:21;6.83;;;2.47;;
5147;SDS011;2592;48.140;7.614;2022-10-23T12:20:49;5.40;;;2.07;;
5147;SDS011;2592;48.140;7.614;2022-10-23T12:23:40;4.80;;;2.90;;
5147;SDS011;2592;48.140;7.614;2022-10-23T12:26:16;10.90;;;2.97;;
5147;SDS011;2592;48.140;7.614;2022-10-23T12:28:48;6.90;;;3.80;;
5147;SDS011;2592;48.140;7.614;2022-10-23T12:31:20;7.10;;;3.73;;
5147;SDS011;2592;48.140;7.614;2022-10-23T12:33:49;4.07;;;2.90;;
5147;SDS011;2592;48.140;7.614;2022-10-23T12:36:25;7.93;;;4.20;;
5147;SDS011;2592;48.140;7.614;2022-10-23T12:38:55;6.80;;;3.17;;
5147;SDS011;2592;48.140;7.614;2022-10-23T12:41:23;10.00;;;4.30;;
5147;SDS011;2592;48.140;7.614;2022-10-23T12:43:50;6.53;;;4.03;;
5147;SDS011;2592;48.140;7.614;2022-10-23T12:46:31;8.43;;;3.40;;
5147;SDS011;2592;48.140;7.614;2022-10-23T12:48:58;7.57;;;3.80;;
5147;SDS011;2592;48.140;7.614;2022-10-23T12:51:26;10.30;;;3.93;;
5147;SDS011;2592;48.140;7.614;2022-10-23T12:53:53;8.20;;;4.17;;
5147;SDS011;2592;48.140;7.614;2022-10-23T12:56:20;6.97;;;4.57;;
5147;SDS011;2592;48.140;7.614;2022-10-23T12:58:48;6.90;;;3.63;;
5147;SDS011;2592;48.140;7.614;2022-10-23T13:01:21;8.73;;;4.10;;
5147;SDS011;2592;48.140;7.614;2022-10-23T13:03:48;5.00;;;2.90;;
5147;SDS011;2592;48.140;7.614;2022-10-23T13:06:14;6.27;;;3.70;;
5147;SDS011;2592;48.140;7.614;2022-10-23T13:08:42;6.60;;;3.60;;
5147;SDS011;2592;48.140;7.614;2022-10-23T13:11:10;5.83;;;2.60;;
5147;SDS011;2592;48.140;7.614;2022-10-23T13:13:40;3.70;;;2.80;;
5147;SDS011;2592;48.140;7.614;2022-10-23T13:16:12;4.63;;;2.63;;
5147;SDS011;2592;48.140;7.614;2022-10-23T13:18:39;3.83;;;2.37;;
5147;SDS011;2592;48.140;7.614;2022-10-23T13:21:09;6.80;;;2.93;;
5147;SDS011;2592;48.140;7.614;2022-10-23T13:23:39;6.27;;;2.20;;
5147;SDS011;2592;48.140;7.614;2022-10-23T13:26:19;4.70;;;1.80;;
5147;SDS011;2592;48.140;7.614;2022-10-23T13:28:50;14.77;;;3.30;;
5147;SDS011;2592;48.140;7.614;2022-10-23T13:31:24;5.30;;;2.10;;
5147;SDS011;2592;48.140;7.614;2022-10-23T13:33:51;5.30;;;1.40;;
5147;SDS011;2592;48.140;7.614;2022-10-23T13:36:28;7.27;;;1.80;;
5147;SDS011;2592;48.140;7.614;2022-10-23T13:38:59;6.60;;;2.33;;
5147;SDS011;2592;48.140;7.614;2022-10-23T13:41:26;6.13;;;1.30;;
5147;SDS011;2592;48.140;7.614;2022-10-23T13:43:54;2.93;;;2.10;;
5147;SDS011;2592;48.140;7.614;2022-10-23T13:46:21;14.50;;;1.97;;
5147;SDS011;2592;48.140;7.614;2022-10-23T13:48:48;5.73;;;1.60;;
5147;SDS011;2592;48.140;7.614;2022-10-23T13:51:15;4.90;;;1.70;;
5147;SDS011;2592;48.140;7.614;2022-10-23T13:53:44;4.20;;;1.77;;
5147;SDS011;2592;48.140;7.614;2022-10-23T13:56:11;6.70;;;1.60;;
5147;SDS011;2592;48.140;7.614;2022-10-23T13:58:37;2.73;;;1.90;;
5147;SDS011;2592;48.140;7.614;2022-10-23T14:01:05;4.60;;;1.33;;
5147;SDS011;2592;48.140;7.614;2022-10-23T14:03:32;3.40;;;1.50;;
5147;SDS011;2592;48.140;7.614;2022-10-23T14:05:59;15.40;;;2.03;;
5147;SDS011;2592;48.140;7.614;2022-10-23T14:08:25;3.30;;;1.80;;
5147;SDS011;2592;48.140;7.614;2022-10-23T14:10:52;7.17;;;1.77;;
5147;SDS011;2592;48.140;7.614;2022-10-23T14:13:18;6.47;;;2.37;;
5147;SDS011;2592;48.140;7.614;2022-10-23T14:15:51;10.23;;;3.30;;
5147;SDS011;2592;48.140;7.614;2022-10-23T14:18:19;13.97;;;2.10;;
5147;SDS011;2592;48.140;7.614;2022-10-23T14:20:45;3.53;;;1.53;;
5147;SDS011;2592;48.140;7.614;2022-10-23T14:23:12;4.50;;;1.57;;
5147;SDS011;2592;48.140;7.614;2022-10-23T14:25:38;11.23;;;2.07;;
5147;SDS011;2592;48.140;7.614;2022-10-23T14:28:05;4.20;;;1.97;;
5147;SDS011;2592;48.140;7.614;2022-10-23T14:30:31;5.97;;;3.40;;
5147;SDS011;2592;48.140;7.614;2022-10-23T14:32:58;6.50;;;1.93;;
5147;SDS011;2592;48.140;7.614;2022-10-23T14:35:25;4.17;;;1.70;;
5147;SDS011;2592;48.140;7.614;2022-10-23T14:37:52;4.07;;;1.70;;
5147;SDS011;2592;48.140;7.614;2022-10-23T14:40:18;7.17;;;2.30;;
5147;SDS011;2592;48.140;7.614;2022-10-23T14:42:45;8.97;;;2.40;;
5147;SDS011;2592;48.140;7.614;2022-10-23T14:45:11;8.63;;;1.83;;
5147;SDS011;2592;48.140;7.614;2022-10-23T14:47:37;5.80;;;2.10;;
5147;SDS011;2592;48.140;7.614;2022-10-23T14:50:04;5.83;;;2.10;;
5147;SDS011;2592;48.140;7.614;2022-10-23T14:52:32;7.10;;;2.27;;
5147;SDS011;2592;48.140;7.614;2022-10-23T14:54:58;4.90;;;2.33;;
5147;SDS011;2592;48.140;7.614;2022-10-23T14:57:25;11.90;;;1.77;;
5147;SDS011;2592;48.140;7.614;2022-10-23T14:59:52;11.70;;;1.90;;
5147;SDS011;2592;48.140;7.614;2022-10-23T15:02:18;11.20;;;2.00;;
5147;SDS011;2592;48.140;7.614;2022-10-23T15:04:45;8.90;;;2.90;;
5147;SDS011;2592;48.140;7.614;2022-10-23T15:07:11;9.53;;;2.70;;
5147;SDS011;2592;48.140;7.614;2022-10-23T15:09:39;14.97;;;2.17;;
5147;SDS011;2592;48.140;7.614;2022-10-23T15:12:05;6.30;;;3.00;;
5147;SDS011;2592;48.140;7.614;2022-10-23T15:14:32;6.40;;;2.07;;
5147;SDS011;2592;48.140;7.614;2022-10-23T15:16:59;7.70;;;2.00;;
5147;SDS011;2592;48.140;7.614;2022-10-23T15:19:25;8.00;;;2.10;;
5147;SDS011;2592;48.140;7.614;2022-10-23T15:21:51;9.13;;;2.30;;
5147;SDS011;2592;48.140;7.614;2022-10-23T15:24:18;4.80;;;1.83;;
5147;SDS011;2592;48.140;7.614;2022-10-23T15:26:47;4.10;;;2.03;;
5147;SDS011;2592;48.140;7.614;2022-10-23T15:29:14;2.90;;;2.00;;